Time;durP1;ratioP1;P1;durP2;ratioP2;P2;SDS_P1;SDS_P2;PMS_P1;PMS_P2;Temp;Humidity;BMP_temperature;BMP_pressure;BME280_temperature;BME280_humidity;BME280_pressure;Samples;Min_cycle;Max_cycle;Signal;HPM_P1;HPM_P2
2021/03/07 00:01:44;;;;;;;0.20;0.10;;;;;;;-3.06;89.39;101396.53;5047753;28;20509;-53
2021/03/07 00:04:11;;;;;;;0.20;0.10;;;;;;;-3.12;90.07;101393.69;5023596;28;20550;-54
2021/03/07 00:06:37;;;;;;;0.20;0.10;;;;;;;-3.10;90.31;101389.44;5044111;28;20467;-54
2021/03/07 00:09:03;;;;;;;0.20;0.10;;;;;;;-3.14;90.05;101384.94;5042095;28;20459;-54
2021/03/07 00:11:29;;;;;;;0.20;0.10;;;;;;;-3.09;90.38;101386.91;5047753;28;20451;-54
2021/03/07 00:13:56;;;;;;;0.20;0.10;;;;;;;-3.07;90.17;101386.97;5049465;28;20485;-54
2021/03/07 00:16:22;;;;;;;0.20;0.10;;;;;;;-3.06;89.50;101386.16;5044078;28;20462;-54
2021/03/07 00:18:48;;;;;;;0.20;0.10;;;;;;;-3.06;89.43;101387.03;5042354;28;20970;-54
2021/03/07 00:21:15;;;;;;;0.20;0.10;;;;;;;-3.17;89.08;101387.38;5047649;28;20448;-54
2021/03/07 00:23:41;;;;;;;0.20;0.10;;;;;;;-3.30;89.06;101388.53;5048759;28;20446;-54
2021/03/07 00:26:08;;;;;;;0.20;0.10;;;;;;;-3.47;89.47;101392.97;5044495;28;20490;-54
2021/03/07 00:28:34;;;;;;;0.20;0.10;;;;;;;-3.39;90.68;101395.94;5042136;28;20972;-54
2021/03/07 00:31:01;;;;;;;0.20;0.10;;;;;;;-2.95;89.80;101384.91;5046857;28;20866;-54
2021/03/07 00:33:28;;;;;;;0.20;0.10;;;;;;;-3.34;90.34;101391.81;5036861;28;20960;-54
2021/03/07 00:35:54;;;;;;;0.20;0.20;;;;;;;-3.21;90.14;101377.69;5044773;28;20466;-54
2021/03/07 00:38:21;;;;;;;0.20;0.10;;;;;;;-3.19;90.28;101389.91;5042068;28;20452;-53
2021/03/07 00:40:47;;;;;;;0.30;0.20;;;;;;;-3.20;89.21;101395.03;5046067;28;20502;-54
2021/03/07 00:43:13;;;;;;;0.20;0.10;;;;;;;-3.54;90.18;101395.25;5048663;28;20460;-54
2021/03/07 00:45:39;;;;;;;0.20;0.10;;;;;;;-3.64;90.44;101391.31;5043305;28;20490;-54
2021/03/07 00:48:06;;;;;;;0.20;0.10;;;;;;;-3.53;91.67;101390.13;5041559;28;20447;-54
2021/03/07 00:50:32;;;;;;;0.20;0.10;;;;;;;-3.33;91.10;101393.59;5045471;28;20455;-54
2021/03/07 00:52:58;;;;;;;0.20;0.10;;;;;;;-3.49;90.26;101391.13;5047477;28;20451;-54
2021/03/07 00:55:26;;;;;;;0.20;0.10;;;;;;;-3.54;90.84;101385.75;5035215;28;20455;-53
2021/03/07 00:57:52;;;;;;;0.20;0.10;;;;;;;-3.65;91.37;101386.94;5048416;28;20483;-54
2021/03/07 01:00:21;;;;;;;0.20;0.10;;;;;;;-3.61;91.75;101378.47;5044785;28;20450;-54
2021/03/07 01:02:48;;;;;;;0.20;0.10;;;;;;;-3.74;92.20;101371.81;5051580;28;20452;-54
2021/03/07 01:05:15;;;;;;;0.50;0.50;;;;;;;-3.84;92.70;101363.53;5044584;28;20509;-54
2021/03/07 01:07:41;;;;;;;0.20;0.10;;;;;;;-3.93;93.24;101367.50;5041288;28;20474;-54
2021/03/07 01:10:14;;;;;;;0.20;0.10;;;;;;;-3.86;92.87;101360.84;5044931;28;20937;-54
2021/03/07 01:12:41;;;;;;;0.20;0.10;;;;;;;-3.88;92.72;101354.72;5048124;28;20514;-54
2021/03/07 01:15:08;;;;;;;0.20;0.10;;;;;;;-4.02;93.41;101353.19;5044363;28;20443;-54
2021/03/07 01:17:35;;;;;;;0.20;0.10;;;;;;;-3.99;92.69;101348.13;5040979;28;20498;-54
2021/03/07 01:20:07;;;;;;;0.20;0.10;;;;;;;-3.99;92.68;101348.13;5043399;28;20487;-53
2021/03/07 01:22:47;;;;;;;0.20;0.10;;;;;;;-4.18;92.92;101355.06;5027430;28;20458;-53
2021/03/07 01:25:14;;;;;;;0.20;0.10;;;;;;;-4.13;93.55;101351.78;5040789;28;20492;-53
2021/03/07 01:27:40;;;;;;;0.20;0.10;;;;;;;-4.15;94.00;101340.44;5047520;28;20518;-54
2021/03/07 01:30:09;;;;;;;0.20;0.10;;;;;;;-4.18;93.67;101336.00;5047663;28;20451;-54
2021/03/07 01:32:36;;;;;;;0.20;0.10;;;;;;;-4.04;93.63;101329.75;5039267;28;20462;-54
2021/03/07 01:35:04;;;;;;;0.20;0.10;;;;;;;-4.08;93.15;101327.84;5041450;28;20964;-54
2021/03/07 01:37:30;;;;;;;0.20;0.10;;;;;;;-4.22;93.14;101324.59;5041846;28;20471;-54
2021/03/07 01:39:56;;;;;;;0.20;0.10;;;;;;;-4.30;93.30;101318.13;5040497;28;20463;-53
2021/03/07 01:42:23;;;;;;;0.20;0.10;;;;;;;-4.30;93.79;101312.06;5045736;28;20451;-53
2021/03/07 01:44:49;;;;;;;0.20;0.10;;;;;;;-4.37;92.96;101300.50;5047184;28;20490;-53
2021/03/07 01:47:25;;;;;;;0.20;0.10;;;;;;;-4.24;93.34;101305.47;5041376;28;20478;-54
2021/03/07 01:49:51;;;;;;;0.20;0.10;;;;;;;-4.20;93.68;101298.72;5040659;28;20448;-54
2021/03/07 01:52:18;;;;;;;0.20;0.10;;;;;;;-4.18;92.75;101299.66;5045163;28;20962;-53
2021/03/07 01:54:44;;;;;;;0.20;0.10;;;;;;;-4.38;93.82;101287.47;5041577;28;20440;-53
2021/03/07 01:57:13;;;;;;;0.20;0.10;;;;;;;-4.43;93.45;101278.56;5044113;28;20474;-53
2021/03/07 01:59:42;;;;;;;0.20;0.20;;;;;;;-4.33;93.99;101278.19;5039982;28;20508;-54
2021/03/07 02:02:08;;;;;;;1.03;1.03;;;;;;;-4.26;93.91;101270.75;5053264;28;20520;-54
2021/03/07 02:04:35;;;;;;;0.20;0.10;;;;;;;-4.45;93.26;101269.81;5039979;28;20493;-53
2021/03/07 02:07:01;;;;;;;0.20;0.10;;;;;;;-4.46;93.18;101276.72;5041944;28;20476;-53
2021/03/07 02:09:27;;;;;;;0.20;0.10;;;;;;;-4.45;93.25;101275.00;5046748;28;20501;-53
2021/03/07 02:11:54;;;;;;;19.60;12.80;;;;;;;-4.48;92.15;101266.28;5044576;28;20829;-53
2021/03/07 02:14:21;;;;;;;0.20;0.13;;;;;;;-4.56;93.43;101270.19;5040101;28;20454;-53
2021/03/07 02:16:47;;;;;;;0.20;0.10;;;;;;;-4.56;94.53;101269.31;5042400;28;20527;-53
2021/03/07 02:19:14;;;;;;;0.20;0.10;;;;;;;-4.51;95.13;101273.91;5046598;28;20451;-53
2021/03/07 02:21:49;;;;;;;0.20;0.10;;;;;;;-4.40;94.80;101265.72;5044964;28;20547;-53
2021/03/07 02:24:16;;;;;;;0.20;0.13;;;;;;;-4.45;94.08;101265.53;5039780;28;20861;-53
2021/03/07 02:26:48;;;;;;;0.20;0.10;;;;;;;-4.69;95.24;101261.75;5040085;28;20505;-53
2021/03/07 02:29:16;;;;;;;0.20;0.10;;;;;;;-4.64;94.64;101268.06;5027635;28;20917;-53
2021/03/07 02:31:47;;;;;;;0.20;0.10;;;;;;;-4.75;95.21;101262.34;5039750;28;20510;-53
2021/03/07 02:34:32;;;;;;;0.20;0.10;;;;;;;-4.73;95.18;101257.25;5031842;28;20455;-53
2021/03/07 02:37:02;;;;;;;0.30;0.10;;;;;;;-4.95;95.78;101258.78;5046067;28;20475;-53
2021/03/07 02:39:32;;;;;;;0.20;0.10;;;;;;;-4.84;95.59;101252.41;5044328;28;21018;-54
2021/03/07 02:42:15;;;;;;;0.20;0.10;;;;;;;-4.90;95.23;101243.47;5039578;28;20447;-53
2021/03/07 02:44:46;;;;;;;0.20;0.10;;;;;;;-4.73;95.84;101246.88;5038244;28;20487;-53
2021/03/07 02:47:14;;;;;;;0.20;0.10;;;;;;;-4.79;95.73;101239.69;5044680;28;20517;-54
2021/03/07 02:49:42;;;;;;;0.20;0.10;;;;;;;-4.80;95.54;101240.47;5045182;28;20455;-53
2021/03/07 02:52:08;;;;;;;0.20;0.10;;;;;;;-4.83;95.17;101238.63;5041183;28;20860;-53
2021/03/07 02:54:37;;;;;;;0.20;0.10;;;;;;;-4.70;95.70;101228.84;5037447;28;20458;-53
2021/03/07 02:57:05;;;;;;;0.20;0.10;;;;;;;-4.81;95.24;101228.34;5042103;28;20890;-53
2021/03/07 02:59:33;;;;;;;0.20;0.10;;;;;;;-4.82;95.75;101231.75;5038923;28;20504;-53
2021/03/07 03:02:02;;;;;;;0.20;0.10;;;;;;;-4.89;95.66;101233.16;5042199;28;20460;-53
2021/03/07 03:04:34;;;;;;;0.20;0.10;;;;;;;-5.08;95.56;101227.88;5020064;28;20815;-53
2021/03/07 03:07:03;;;;;;;0.20;0.10;;;;;;;-4.88;96.41;101232.34;5042725;28;20865;-53
2021/03/07 03:09:34;;;;;;;0.20;0.10;;;;;;;-4.91;95.84;101224.44;5038946;28;20869;-53
2021/03/07 03:12:01;;;;;;;0.20;0.10;;;;;;;-4.78;94.37;101210.34;5039779;28;20447;-53
2021/03/07 03:14:29;;;;;;;0.20;0.10;;;;;;;-4.81;94.49;101221.44;5045575;28;20455;-54
2021/03/07 03:16:57;;;;;;;0.20;0.10;;;;;;;-5.03;94.64;101220.34;5044896;28;20502;-54
2021/03/07 03:19:26;;;;;;;0.20;0.20;;;;;;;-4.84;93.79;101221.31;5045351;28;20549;-54
2021/03/07 03:21:53;;;;;;;0.20;0.10;;;;;;;-4.96;94.18;101218.13;5045671;28;20501;-54
2021/03/07 03:24:20;;;;;;;0.20;0.10;;;;;;;-5.00;94.24;101218.78;5039508;28;20458;-54
2021/03/07 03:26:46;;;;;;;0.20;0.10;;;;;;;-5.05;95.51;101211.63;5038352;28;20500;-54
2021/03/07 03:29:13;;;;;;;0.20;0.10;;;;;;;-5.11;95.02;101214.78;5045385;28;20455;-53
2021/03/07 03:31:39;;;;;;;0.20;0.10;;;;;;;-5.16;95.02;101222.34;5045563;28;20505;-53
2021/03/07 03:34:08;;;;;;;0.20;0.10;;;;;;;-5.11;95.16;101226.03;5039751;28;20868;-53
2021/03/07 03:36:37;;;;;;;0.30;0.20;;;;;;;-5.10;95.45;101211.38;5038680;28;20809;-54
2021/03/07 03:39:28;;;;;;;0.20;0.10;;;;;;;-5.11;94.24;101218.25;5044092;28;20448;-54
2021/03/07 03:41:59;;;;;;;0.20;0.10;;;;;;;-5.20;94.58;101215.25;5045392;28;20459;-53
2021/03/07 03:44:30;;;;;;;0.20;0.10;;;;;;;-5.23;95.21;101222.84;5044250;28;20446;-53
2021/03/07 03:46:57;;;;;;;0.20;0.10;;;;;;;-5.26;96.43;101217.50;5038315;28;20486;-53
2021/03/07 03:49:46;;;;;;;0.20;0.10;;;;;;;-5.39;96.21;101222.88;5039204;28;20466;-53
2021/03/07 03:52:14;;;;;;;0.20;0.10;;;;;;;-5.39;96.65;101228.97;5030733;28;20799;-53
2021/03/07 03:54:53;;;;;;;0.20;0.10;;;;;;;-5.50;96.43;101230.09;5036104;28;20447;-53
2021/03/07 03:57:27;;;;;;;0.20;0.10;;;;;;;-5.38;97.05;101222.97;5043883;28;20463;-53
2021/03/07 03:59:56;;;;;;;0.20;0.10;;;;;;;-5.38;97.41;101228.13;5038441;28;20469;-53
2021/03/07 04:02:27;;;;;;;0.20;0.10;;;;;;;-5.43;96.85;101226.16;5038351;28;20452;-53
2021/03/07 04:04:57;;;;;;;0.20;0.10;;;;;;;-5.42;96.34;101226.22;5027671;28;20493;-53
2021/03/07 04:07:25;;;;;;;0.20;0.10;;;;;;;-5.52;96.09;101233.44;5038101;28;21007;-53
2021/03/07 04:09:53;;;;;;;0.20;0.10;;;;;;;-5.44;97.38;101229.53;5043717;28;20451;-53
2021/03/07 04:12:21;;;;;;;0.20;0.10;;;;;;;-5.29;98.00;101235.50;5045130;28;20450;-53
2021/03/07 04:14:48;;;;;;;0.20;0.10;;;;;;;-5.28;97.54;101232.09;5040478;28;20470;-53
2021/03/07 04:17:21;;;;;;;0.20;0.10;;;;;;;-5.31;96.30;101229.34;5038204;28;20471;-53
2021/03/07 04:19:47;;;;;;;0.20;0.10;;;;;;;-5.24;96.31;101234.00;5042391;28;20448;-53
2021/03/07 04:22:14;;;;;;;0.20;0.10;;;;;;;-5.19;96.71;101232.56;5045191;28;20460;-53
2021/03/07 04:24:41;;;;;;;0.20;0.10;;;;;;;-5.19;97.32;101232.56;5041354;28;20541;-53
2021/03/07 04:27:08;;;;;;;0.20;0.10;;;;;;;-5.11;97.17;101226.03;5038172;28;20466;-53
2021/03/07 04:29:37;;;;;;;0.20;0.10;;;;;;;-4.89;96.21;101221.91;5043946;28;20455;-53
2021/03/07 04:32:05;;;;;;;0.20;0.10;;;;;;;-5.02;96.26;101222.13;5048536;28;20486;-53
2021/03/07 04:34:33;;;;;;;0.20;0.10;;;;;;;-5.08;95.14;101221.00;5046353;28;20450;-53
2021/03/07 04:36:59;;;;;;;0.20;0.10;;;;;;;-5.15;95.15;101224.13;5041708;28;21045;-54
2021/03/07 04:39:26;;;;;;;0.20;0.10;;;;;;;-5.38;95.20;101227.25;5044328;28;20505;-53
2021/03/07 04:41:52;;;;;;;0.20;0.10;;;;;;;-5.46;95.43;101229.47;5048613;28;20451;-54
2021/03/07 04:44:35;;;;;;;0.20;0.10;;;;;;;-5.51;95.57;101230.91;5048526;28;20453;-53
2021/03/07 04:47:02;;;;;;;0.20;0.10;;;;;;;-5.32;95.68;101232.75;5041827;28;20474;-53
2021/03/07 04:49:28;;;;;;;0.20;0.10;;;;;;;-5.66;96.64;101227.56;5041632;28;20451;-54
2021/03/07 04:51:54;;;;;;;0.20;0.10;;;;;;;-5.75;96.66;101237.47;5048841;28;20459;-53
2021/03/07 04:54:20;;;;;;;0.20;0.10;;;;;;;-5.66;97.29;101232.72;5043865;28;20447;-54
2021/03/07 04:56:46;;;;;;;0.20;0.10;;;;;;;-5.86;96.74;101231.72;5042292;28;20463;-53
2021/03/07 04:59:12;;;;;;;0.20;0.10;;;;;;;-5.68;97.28;101226.59;5041191;28;20463;-53
2021/03/07 05:01:39;;;;;;;0.20;0.10;;;;;;;-5.76;96.51;101228.78;5054819;28;20454;-53
2021/03/07 05:04:06;;;;;;;0.20;0.10;;;;;;;-5.79;97.87;101219.97;5041350;28;20447;-53
2021/03/07 05:06:40;;;;;;;0.20;0.10;;;;;;;-5.62;96.90;101224.31;5047123;28;20736;-53
2021/03/07 05:09:09;;;;;;;0.20;0.13;;;;;;;-5.46;96.15;101226.00;5047859;28;20461;-54
2021/03/07 05:11:35;;;;;;;0.20;0.10;;;;;;;-5.41;95.88;101221.94;5043502;28;20451;-54
2021/03/07 05:14:03;;;;;;;0.20;0.10;;;;;;;-5.32;96.22;101234.47;5040973;28;20525;-53
2021/03/07 05:16:29;;;;;;;0.20;0.10;;;;;;;-5.47;96.16;101227.69;5045619;28;20888;-54
2021/03/07 05:18:56;;;;;;;0.20;0.10;;;;;;;-5.84;95.96;101230.09;5048020;28;20533;-53
2021/03/07 05:21:24;;;;;;;0.20;0.20;;;;;;;-5.69;96.46;101233.47;5043585;28;20454;-53
2021/03/07 05:23:50;;;;;;;0.20;0.10;;;;;;;-5.69;97.15;101225.69;5040667;28;20455;-53
2021/03/07 05:26:16;;;;;;;0.20;0.10;;;;;;;-5.66;98.01;101227.56;5045095;28;20498;-53
2021/03/07 05:28:43;;;;;;;0.20;0.10;;;;;;;-5.68;98.38;101221.41;5047856;28;20450;-53
2021/03/07 05:31:09;;;;;;;0.20;0.10;;;;;;;-5.67;98.76;101220.59;5043687;28;20473;-53
2021/03/07 05:33:36;;;;;;;0.20;0.10;;;;;;;-5.72;97.09;101217.78;5034067;28;20475;-53
2021/03/07 05:36:02;;;;;;;0.20;0.10;;;;;;;-5.92;97.12;101208.13;5026597;28;21000;-53
2021/03/07 05:38:28;;;;;;;3.67;3.40;;;;;;;-6.00;97.49;101218.09;5047571;28;20470;-53
2021/03/07 05:40:54;;;;;;;0.20;0.10;;;;;;;-5.98;97.41;101220.75;5042574;28;20446;-53
2021/03/07 05:43:22;;;;;;;0.20;0.10;;;;;;;-6.02;97.29;101221.41;5040658;28;20451;-53
2021/03/07 05:45:49;;;;;;;0.20;0.10;;;;;;;-5.99;97.63;101224.16;5043772;28;20514;-53
2021/03/07 05:48:15;;;;;;;0.20;0.10;;;;;;;-5.84;96.96;101221.44;5047340;28;20514;-52
2021/03/07 05:50:42;;;;;;;0.20;0.10;;;;;;;-5.74;97.00;101215.94;5043497;28;20454;-53
2021/03/07 05:53:08;;;;;;;0.20;0.10;;;;;;;-5.98;95.43;101219.06;5040630;28;20814;-52
2021/03/07 05:55:34;;;;;;;0.20;0.10;;;;;;;-6.13;97.65;101209.59;5038924;28;20928;-52
2021/03/07 05:58:02;;;;;;;0.20;0.10;;;;;;;-6.09;97.26;101211.53;5046947;28;20455;-53
2021/03/07 06:00:30;;;;;;;0.20;0.10;;;;;;;-5.95;97.65;101209.66;5044872;28;20447;-53
2021/03/07 06:02:56;;;;;;;0.20;0.10;;;;;;;-5.94;97.47;101216.63;5031784;28;20942;-52
2021/03/07 06:05:22;;;;;;;0.20;0.10;;;;;;;-6.03;96.89;101209.25;5024575;28;20491;-52
2021/03/07 06:07:49;;;;;;;0.20;0.10;;;;;;;-6.04;97.87;101215.22;5046984;28;20486;-53
2021/03/07 06:10:19;;;;;;;0.20;0.10;;;;;;;-6.05;97.32;101214.34;5044564;28;20940;-52
2021/03/07 06:12:56;;;;;;;0.20;0.10;;;;;;;-6.16;97.62;101212.03;5039562;28;20497;-52
2021/03/07 06:15:25;;;;;;;0.20;0.10;;;;;;;-5.98;97.89;101211.28;5039714;28;20447;-53
2021/03/07 06:17:52;;;;;;;0.20;0.10;;;;;;;-5.90;97.68;101208.19;5046246;28;20530;-53
2021/03/07 06:20:27;;;;;;;0.20;0.10;;;;;;;-6.04;97.17;101208.34;5046396;28;20509;-53
2021/03/07 06:22:59;;;;;;;0.20;0.10;;;;;;;-5.98;98.03;101203.53;5039758;28;20928;-52
2021/03/07 06:25:26;;;;;;;0.20;0.10;;;;;;;-5.91;98.54;101198.66;5039537;28;20494;-53
2021/03/07 06:27:54;;;;;;;0.20;0.10;;;;;;;-5.88;98.83;101203.97;5044340;28;20827;-53
2021/03/07 06:30:24;;;;;;;0.20;0.10;;;;;;;-5.83;99.06;101200.81;5046300;28;20454;-52
2021/03/07 06:32:55;;;;;;;0.20;0.10;;;;;;;-5.61;98.68;101207.09;5036078;28;20942;-53
2021/03/07 06:35:29;;;;;;;0.20;0.10;;;;;;;-5.47;97.41;101200.91;5043222;28;20447;-53
2021/03/07 06:38:02;;;;;;;0.20;0.10;;;;;;;-5.27;97.35;101202.78;5044182;28;20449;-51
2021/03/07 06:40:34;;;;;;;0.20;0.10;;;;;;;-5.25;97.29;101198.56;5039833;28;20443;-51
2021/03/07 06:43:03;;;;;;;0.20;0.10;;;;;;;-5.21;97.32;101199.59;5040030;28;20451;-51
2021/03/07 06:45:42;;;;;;;0.20;0.10;;;;;;;-5.12;96.18;101194.88;5046218;28;20854;-52
2021/03/07 06:48:10;;;;;;;0.20;0.10;;;;;;;-5.01;97.18;101190.22;5046849;28;20959;-52
2021/03/07 06:50:52;;;;;;;0.20;0.10;;;;;;;-4.97;96.66;101185.25;5041639;28;20451;-52
2021/03/07 06:53:31;;;;;;;0.20;0.10;;;;;;;-4.73;96.57;101195.91;5040002;28;20932;-52
2021/03/07 06:55:57;;;;;;;0.20;0.10;;;;;;;-4.63;97.11;101194.63;5036895;28;20499;-52
2021/03/07 06:58:23;;;;;;;0.20;0.10;;;;;;;-4.54;97.82;101193.34;5045730;28;20462;-52
2021/03/07 07:00:49;;;;;;;0.20;0.10;;;;;;;-4.38;97.74;101194.97;5046996;28;20447;-52
2021/03/07 07:03:16;;;;;;;0.20;0.10;;;;;;;-4.21;97.75;101198.31;5046027;28;20451;-52
2021/03/07 07:05:45;;;;;;;0.20;0.10;;;;;;;-4.26;96.33;101194.59;5045938;28;20536;-52
2021/03/07 07:08:13;;;;;;;0.20;0.10;;;;;;;-3.98;96.70;101187.22;5040492;28;20465;-51
2021/03/07 07:10:51;;;;;;;0.20;0.10;;;;;;;-3.87;96.52;101187.69;5039108;28;20937;-52
2021/03/07 07:13:25;;;;;;;0.20;0.10;;;;;;;-3.84;96.96;101190.44;5043833;28;20474;-52
2021/03/07 07:16:02;;;;;;;0.57;0.57;;;;;;;-3.68;96.20;101185.09;5045793;28;20977;-52
2021/03/07 07:18:32;;;;;;;0.20;0.10;;;;;;;-3.79;95.98;101177.66;5044029;28;20450;-52
2021/03/07 07:20:59;;;;;;;0.20;0.10;;;;;;;-3.72;96.78;101179.69;5039385;28;20458;-52
2021/03/07 07:23:25;;;;;;;0.20;0.10;;;;;;;-3.60;95.90;101177.63;5040325;28;20514;-52
2021/03/07 07:25:52;;;;;;;0.20;0.13;;;;;;;-3.51;95.59;101179.72;5045478;28;20491;-51
2021/03/07 07:28:20;;;;;;;0.20;0.10;;;;;;;-3.51;95.68;101174.53;5045236;28;20454;-52
2021/03/07 07:30:59;;;;;;;0.20;0.10;;;;;;;-3.30;96.68;101165.00;5037022;28;20533;-52
2021/03/07 07:33:40;;;;;;;0.20;0.10;;;;;;;-3.23;95.92;101159.25;5038515;28;20462;-52
2021/03/07 07:36:09;;;;;;;0.20;0.10;;;;;;;-2.96;95.94;101159.47;5042342;28;20460;-52
2021/03/07 07:38:38;;;;;;;0.20;0.10;;;;;;;-3.16;95.92;101156.06;5045642;28;20501;-52
2021/03/07 07:41:31;;;;;;;0.20;0.10;;;;;;;-2.93;95.93;101158.72;5042772;28;20455;-52
2021/03/07 07:43:59;;;;;;;0.20;0.10;;;;;;;-2.62;94.92;101158.19;5044404;28;20451;-52
2021/03/07 07:46:25;;;;;;;0.20;0.10;;;;;;;-2.50;94.24;101161.25;5045437;28;20616;-53
2021/03/07 07:48:51;;;;;;;0.20;0.10;;;;;;;-2.40;93.64;101160.78;5040246;28;20451;-54
2021/03/07 07:51:35;;;;;;;0.20;0.10;;;;;;;-2.35;94.00;101163.53;5038808;28;20459;-52
2021/03/07 07:54:03;;;;;;;0.20;0.10;;;;;;;-2.31;94.58;101161.13;5041400;28;20822;-52
2021/03/07 07:56:33;;;;;;;0.20;0.10;;;;;;;-2.24;94.87;101162.22;5037022;28;20517;-52
2021/03/07 07:59:00;;;;;;;0.20;0.10;;;;;;;-1.88;94.15;101160.97;5039394;28;20451;-52
2021/03/07 08:01:47;;;;;;;0.20;0.20;;;;;;;-1.87;94.26;101167.06;5045484;28;20455;-52
2021/03/07 08:04:29;;;;;;;0.20;0.10;;;;;;;-1.62;93.83;101155.78;5022551;28;20452;-53
2021/03/07 08:06:55;;;;;;;0.20;0.10;;;;;;;-1.54;93.95;101157.81;5047022;28;20559;-52
2021/03/07 08:09:37;;;;;;;0.20;0.10;;;;;;;-1.32;92.94;101161.16;5042221;28;20460;-52
2021/03/07 08:12:40;;;;;;;0.20;0.10;;;;;;;-1.29;92.38;101161.25;5042268;28;20451;-53
2021/03/07 08:15:24;;;;;;;0.20;0.10;;;;;;;-1.20;92.09;101152.00;5043819;28;20451;-53
2021/03/07 08:17:55;;;;;;;0.20;0.10;;;;;;;-1.10;92.19;101150.56;5031622;28;20470;-52
2021/03/07 08:20:37;;;;;;;0.20;0.10;;;;;;;-0.96;92.03;101140.56;5042224;28;20530;-53
2021/03/07 08:23:08;;;;;;;0.20;0.10;;;;;;;-0.95;91.83;101142.38;5044729;28;20941;-53
2021/03/07 08:25:46;;;;;;;0.20;0.10;;;;;;;-0.76;91.32;101141.22;5048180;28;21043;-53
2021/03/07 08:28:31;;;;;;;0.20;0.10;;;;;;;-0.68;91.67;101137.13;5048504;28;20454;-53
2021/03/07 08:31:03;;;;;;;0.20;0.10;;;;;;;-0.55;91.38;101144.44;5046602;28;20447;-53
2021/03/07 08:33:35;;;;;;;0.20;0.10;;;;;;;-0.43;90.48;101134.38;5036665;28;20975;-52
2021/03/07 08:36:15;;;;;;;0.20;0.10;;;;;;;-0.28;88.96;101128.72;5045716;28;20470;-52
2021/03/07 08:38:53;;;;;;;0.20;0.10;;;;;;;-0.22;88.94;101126.28;5041521;28;20451;-52
2021/03/07 08:41:32;;;;;;;0.20;0.10;;;;;;;-0.13;88.57;101131.78;5041744;28;20462;-53
2021/03/07 08:43:59;;;;;;;0.20;0.10;;;;;;;0.05;87.79;101128.78;5046035;28;20451;-52
2021/03/07 08:46:41;;;;;;;0.30;0.20;;;;;;;0.14;88.19;101122.94;5048492;28;20498;-52
2021/03/07 08:49:12;;;;;;;0.20;0.10;;;;;;;0.19;86.44;101116.97;5045565;28;20474;-52
2021/03/07 08:51:45;;;;;;;0.20;0.10;;;;;;;0.63;85.48;101119.84;5041392;28;20919;-52
2021/03/07 08:54:17;;;;;;;0.20;0.10;;;;;;;0.82;84.45;101106.38;5041990;28;20454;-52
2021/03/07 08:56:43;;;;;;;0.63;0.63;;;;;;;0.88;82.37;101100.41;5028717;28;20964;-52
2021/03/07 08:59:11;;;;;;;0.20;0.20;;;;;;;1.18;81.21;101101.09;5041429;28;20869;-53
2021/03/07 09:01:37;;;;;;;0.20;0.20;;;;;;;0.99;81.19;101095.41;5047590;28;20452;-52
2021/03/07 09:04:06;;;;;;;0.20;0.10;;;;;;;1.25;79.53;101094.28;5022097;28;20855;-52
2021/03/07 09:06:38;;;;;;;0.20;0.20;;;;;;;1.38;78.38;101093.69;5041558;28;20495;-52
2021/03/07 09:09:21;;;;;;;0.20;0.10;;;;;;;1.60;76.95;101084.53;5041179;28;20940;-53
2021/03/07 09:11:51;;;;;;;0.20;0.10;;;;;;;1.89;76.04;101086.84;5044397;28;20473;-53
2021/03/07 09:14:25;;;;;;;0.20;0.10;;;;;;;1.87;75.88;101081.56;5047717;28;20945;-53
2021/03/07 09:16:52;;;;;;;0.20;0.10;;;;;;;2.00;74.96;101075.72;5045075;28;20466;-53
2021/03/07 09:19:27;;;;;;;0.20;0.10;;;;;;;2.07;75.13;101068.88;5039604;28;20447;-53
2021/03/07 09:22:17;;;;;;;0.20;0.10;;;;;;;2.34;75.09;101071.09;5041352;28;20859;-53
2021/03/07 09:24:50;;;;;;;0.20;0.10;;;;;;;2.37;74.23;101058.03;5033928;28;20781;-53
2021/03/07 09:27:17;;;;;;;0.20;0.10;;;;;;;2.55;74.18;101057.44;5040600;28;20913;-53
2021/03/07 09:30:15;;;;;;;0.20;0.10;;;;;;;2.57;73.81;101048.72;5043848;28;20451;-53
2021/03/07 09:32:44;;;;;;;0.20;0.10;;;;;;;2.91;73.47;101050.13;5026777;28;20451;-53
2021/03/07 09:35:31;;;;;;;0.20;0.20;;;;;;;2.89;72.82;101046.63;5032208;28;20480;-53
2021/03/07 09:38:03;;;;;;;0.30;0.20;;;;;;;2.94;74.09;101041.41;5042225;28;20444;-55
2021/03/07 09:40:33;;;;;;;0.20;0.17;;;;;;;3.00;73.31;101040.63;5047439;28;20902;-55
2021/03/07 09:43:28;;;;;;;0.20;0.10;;;;;;;3.05;73.66;101031.97;5046866;28;20450;-56
2021/03/07 09:45:55;;;;;;;0.20;0.10;;;;;;;3.15;73.54;101025.97;5038911;28;20500;-56
2021/03/07 09:48:28;;;;;;;0.20;0.20;;;;;;;3.48;71.21;101017.63;5046779;28;20497;-55
2021/03/07 09:50:55;;;;;;;40.00;7.80;;;;;;;3.64;70.89;101015.16;5045751;28;20447;-55
2021/03/07 09:53:23;;;;;;;0.20;0.10;;;;;;;3.74;71.36;101017.94;5040471;28;20447;-55
2021/03/07 09:55:49;;;;;;;0.20;0.20;;;;;;;3.84;70.47;101001.38;5037249;28;20443;-55
2021/03/07 09:58:15;;;;;;;0.30;0.20;;;;;;;4.14;69.74;100992.91;5047798;28;20452;-55
2021/03/07 10:00:49;;;;;;;0.20;0.20;;;;;;;4.33;67.81;101003.56;5046512;28;20447;-55
2021/03/07 10:03:26;;;;;;;0.20;0.20;;;;;;;4.65;67.01;101003.81;5013944;28;20448;-55
2021/03/07 10:06:12;;;;;;;0.30;0.10;;;;;;;4.58;67.68;100996.75;5029792;28;21012;-55
2021/03/07 10:08:40;;;;;;;0.30;0.20;;;;;;;4.69;65.27;101005.63;5042896;28;20451;-55
2021/03/07 10:11:19;;;;;;;0.30;0.20;;;;;;;4.82;64.88;100996.91;5046655;28;20934;-55
2021/03/07 10:13:55;;;;;;;0.30;0.20;;;;;;;4.76;65.71;100995.13;5047311;28;20970;-55
2021/03/07 10:16:28;;;;;;;0.20;0.10;;;;;;;4.80;66.02;100992.50;5046042;28;20460;-55
2021/03/07 10:19:06;;;;;;;0.30;0.20;;;;;;;5.09;65.07;100992.69;5046925;28;20466;-56
2021/03/07 10:21:33;;;;;;;0.20;0.20;;;;;;;5.13;64.77;100987.44;5043794;28;20528;-55
2021/03/07 10:24:13;;;;;;;0.20;0.20;;;;;;;5.27;63.82;100984.84;5040030;28;20457;-55
2021/03/07 10:26:42;;;;;;;0.23;0.10;;;;;;;5.62;63.05;100991.13;5038970;28;20491;-55
2021/03/07 10:29:30;;;;;;;0.30;0.20;;;;;;;5.28;62.94;100990.13;5046396;28;20501;-55
2021/03/07 10:32:19;;;;;;;0.30;0.10;;;;;;;5.60;63.26;100982.31;5046497;28;20443;-55
2021/03/07 10:34:48;;;;;;;0.30;0.10;;;;;;;5.62;61.90;100983.22;5045724;28;20821;-55
2021/03/07 10:37:36;;;;;;;0.30;0.20;;;;;;;5.71;61.82;100976.19;5039467;28;20471;-55
2021/03/07 10:40:05;;;;;;;0.30;0.20;;;;;;;5.92;60.46;100976.28;5040082;28;20505;-56
2021/03/07 10:42:36;;;;;;;0.30;0.20;;;;;;;6.20;60.43;100971.91;5043490;28;20462;-55
2021/03/07 10:45:13;;;;;;;0.20;0.10;;;;;;;6.23;59.85;100966.63;5046609;28;20530;-56
2021/03/07 10:47:40;;;;;;;0.30;0.20;;;;;;;6.08;58.56;100970.13;5044218;28;20905;-56
2021/03/07 10:50:07;;;;;;;0.30;0.20;;;;;;;5.89;58.09;100974.50;5039428;28;20447;-55
2021/03/07 10:52:34;;;;;;;0.30;0.20;;;;;;;5.80;57.77;100965.69;5041169;28;20533;-55
2021/03/07 10:55:09;;;;;;;0.30;0.10;;;;;;;6.19;58.00;100967.50;5041941;28;20585;-55
2021/03/07 10:57:35;;;;;;;0.30;0.20;;;;;;;6.58;56.77;100961.34;5046041;28;20486;-55
2021/03/07 11:00:03;;;;;;;0.30;0.20;;;;;;;6.55;56.28;100969.22;5039890;28;20824;-55
2021/03/07 11:02:29;;;;;;;0.30;0.20;;;;;;;6.74;55.75;100965.69;5051450;28;20454;-55
2021/03/07 11:04:55;;;;;;;0.40;0.20;;;;;;;6.48;55.67;100964.84;5038964;28;20524;-56
2021/03/07 11:07:21;;;;;;;0.30;0.17;;;;;;;6.43;56.05;100956.03;5038657;28;20503;-56
2021/03/07 11:09:47;;;;;;;0.30;0.20;;;;;;;6.81;54.94;100950.69;5043701;28;20941;-56
2021/03/07 11:12:13;;;;;;;0.30;0.20;;;;;;;6.85;52.09;100955.06;5045411;28;20462;-55
2021/03/07 11:14:40;;;;;;;0.30;0.10;;;;;;;6.47;47.26;100956.06;5039973;28;20450;-55
2021/03/07 11:17:06;;;;;;;0.30;0.20;;;;;;;6.57;48.11;100951.63;5038665;28;20555;-55
2021/03/07 11:19:32;;;;;;;0.30;0.20;;;;;;;6.87;49.60;100942.78;5044743;28;20865;-55
2021/03/07 11:22:02;;;;;;;0.30;0.20;;;;;;;7.01;47.84;100946.25;5045246;28;20953;-56
2021/03/07 11:24:28;;;;;;;0.30;0.20;;;;;;;6.81;47.54;100935.72;5039934;28;20940;-56
2021/03/07 11:26:54;;;;;;;0.30;0.20;;;;;;;6.91;48.17;100933.06;5038369;28;20541;-55
2021/03/07 11:29:21;;;;;;;0.30;0.10;;;;;;;6.93;47.56;100928.66;5044204;28;20459;-55
2021/03/07 11:31:47;;;;;;;0.30;0.20;;;;;;;6.86;48.57;100924.28;5045555;28;20516;-56
2021/03/07 11:34:13;;;;;;;0.30;0.10;;;;;;;6.95;47.99;100921.59;5040478;28;20443;-55
2021/03/07 11:36:40;;;;;;;0.30;0.10;;;;;;;6.54;48.21;100920.81;5038343;28;20895;-55
2021/03/07 11:39:06;;;;;;;0.30;0.20;;;;;;;6.88;48.04;100909.28;5043085;28;20447;-56
2021/03/07 11:41:32;;;;;;;0.30;0.20;;;;;;;7.08;47.74;100903.03;5045444;28;20473;-56